sensor_id;sensor_type;location;lat;lon;timestamp;P1;durP1;ratioP1;P2;durP2;ratioP2
15841;SDS011;8021;48.022;11.812;2023-07-29T00:01:09;0.20;;;0.10;;
15841;SDS011;8021;48.022;11.812;2023-07-29T00:03:38;0.20;;;0.20;;
15841;SDS011;8021;48.022;11.812;2023-07-29T00:06:05;0.20;;;0.20;;
15841;SDS011;8021;48.022;11.812;2023-07-29T00:08:33;0.20;;;0.20;;
15841;SDS011;8021;48.022;11.812;2023-07-29T00:11:00;0.20;;;0.10;;
15841;SDS011;8021;48.022;11.812;2023-07-29T00:13:27;0.20;;;0.10;;
15841;SDS011;8021;48.022;11.812;2023-07-29T00:15:55;0.20;;;0.20;;
15841;SDS011;8021;48.022;11.812;2023-07-29T00:18:22;0.20;;;0.20;;
15841;SDS011;8021;48.022;11.812;2023-07-29T00:20:51;0.20;;;0.20;;
15841;SDS011;8021;48.022;11.812;2023-07-29T00:23:19;0.20;;;0.10;;
15841;SDS011;8021;48.022;11.812;2023-07-29T00:25:47;0.20;;;0.20;;
15841;SDS011;8021;48.022;11.812;2023-07-29T00:28:15;0.20;;;0.20;;
15841;SDS011;8021;48.022;11.812;2023-07-29T00:30:44;0.20;;;0.20;;
15841;SDS011;8021;48.022;11.812;2023-07-29T00:33:11;0.20;;;0.10;;
15841;SDS011;8021;48.022;11.812;2023-07-29T00:35:39;0.20;;;0.20;;
15841;SDS011;8021;48.022;11.812;2023-07-29T00:38:08;0.20;;;0.10;;
15841;SDS011;8021;48.022;11.812;2023-07-29T00:40:35;0.20;;;0.20;;
15841;SDS011;8021;48.022;11.812;2023-07-29T00:43:03;0.20;;;0.20;;
15841;SDS011;8021;48.022;11.812;2023-07-29T00:45:31;0.20;;;0.20;;
15841;SDS011;8021;48.022;11.812;2023-07-29T00:47:59;0.20;;;0.10;;
15841;SDS011;8021;48.022;11.812;2023-07-29T00:50:27;0.20;;;0.20;;
15841;SDS011;8021;48.022;11.812;2023-07-29T00:52:59;0.15;;;0.10;;
15841;SDS011;8021;48.022;11.812;2023-07-29T00:55:28;0.20;;;0.20;;
15841;SDS011;8021;48.022;11.812;2023-07-29T00:57:55;0.20;;;0.20;;
15841;SDS011;8021;48.022;11.812;2023-07-29T01:00:23;0.20;;;0.20;;
15841;SDS011;8021;48.022;11.812;2023-07-29T01:02:52;0.20;;;0.10;;
15841;SDS011;8021;48.022;11.812;2023-07-29T01:05:21;0.20;;;0.20;;
15841;SDS011;8021;48.022;11.812;2023-07-29T01:07:50;0.20;;;0.20;;
15841;SDS011;8021;48.022;11.812;2023-07-29T01:10:20;0.20;;;0.20;;
15841;SDS011;8021;48.022;11.812;2023-07-29T01:12:51;0.20;;;0.20;;
15841;SDS011;8021;48.022;11.812;2023-07-29T01:15:20;0.20;;;0.10;;
15841;SDS011;8021;48.022;11.812;2023-07-29T01:17:51;0.20;;;0.20;;
15841;SDS011;8021;48.022;11.812;2023-07-29T01:20:20;0.20;;;0.20;;
15841;SDS011;8021;48.022;11.812;2023-07-29T01:22:48;0.20;;;0.20;;
15841;SDS011;8021;48.022;11.812;2023-07-29T01:25:17;0.20;;;0.10;;
15841;SDS011;8021;48.022;11.812;2023-07-29T01:27:45;0.20;;;0.20;;
15841;SDS011;8021;48.022;11.812;2023-07-29T01:30:12;0.20;;;0.13;;
15841;SDS011;8021;48.022;11.812;2023-07-29T01:32:45;0.20;;;0.15;;
15841;SDS011;8021;48.022;11.812;2023-07-29T01:35:19;0.20;;;0.20;;
15841;SDS011;8021;48.022;11.812;2023-07-29T01:37:51;0.20;;;0.20;;
15841;SDS011;8021;48.022;11.812;2023-07-29T01:40:20;0.20;;;0.20;;
15841;SDS011;8021;48.022;11.812;2023-07-29T01:42:49;0.20;;;0.20;;
15841;SDS011;8021;48.022;11.812;2023-07-29T01:45:18;0.20;;;0.20;;
15841;SDS011;8021;48.022;11.812;2023-07-29T01:47:46;0.20;;;0.20;;
15841;SDS011;8021;48.022;11.812;2023-07-29T01:50:14;0.22;;;0.20;;
15841;SDS011;8021;48.022;11.812;2023-07-29T01:52:41;0.20;;;0.20;;
15841;SDS011;8021;48.022;11.812;2023-07-29T01:55:09;0.20;;;0.10;;
15841;SDS011;8021;48.022;11.812;2023-07-29T01:57:38;0.20;;;0.20;;
15841;SDS011;8021;48.022;11.812;2023-07-29T02:00:06;0.20;;;0.20;;
15841;SDS011;8021;48.022;11.812;2023-07-29T02:02:40;0.20;;;0.20;;
15841;SDS011;8021;48.022;11.812;2023-07-29T02:05:07;0.20;;;0.20;;
15841;SDS011;8021;48.022;11.812;2023-07-29T02:07:35;0.20;;;0.20;;
15841;SDS011;8021;48.022;11.812;2023-07-29T02:10:02;0.20;;;0.20;;
15841;SDS011;8021;48.022;11.812;2023-07-29T02:12:30;0.20;;;0.20;;
15841;SDS011;8021;48.022;11.812;2023-07-29T02:14:59;0.30;;;0.20;;
15841;SDS011;8021;48.022;11.812;2023-07-29T02:17:26;0.30;;;0.20;;
15841;SDS011;8021;48.022;11.812;2023-07-29T02:19:54;0.20;;;0.20;;
15841;SDS011;8021;48.022;11.812;2023-07-29T02:22:22;0.20;;;0.20;;
15841;SDS011;8021;48.022;11.812;2023-07-29T02:24:49;0.30;;;0.28;;
15841;SDS011;8021;48.022;11.812;2023-07-29T02:27:17;0.20;;;0.10;;
15841;SDS011;8021;48.022;11.812;2023-07-29T02:29:44;0.20;;;0.20;;
15841;SDS011;8021;48.022;11.812;2023-07-29T02:32:13;0.20;;;0.20;;
15841;SDS011;8021;48.022;11.812;2023-07-29T02:34:41;0.20;;;0.20;;
15841;SDS011;8021;48.022;11.812;2023-07-29T02:37:12;0.28;;;0.22;;
15841;SDS011;8021;48.022;11.812;2023-07-29T02:39:40;0.30;;;0.20;;
15841;SDS011;8021;48.022;11.812;2023-07-29T02:42:07;0.20;;;0.20;;
15841;SDS011;8021;48.022;11.812;2023-07-29T02:44:35;0.20;;;0.20;;
15841;SDS011;8021;48.022;11.812;2023-07-29T02:47:03;0.20;;;0.20;;
15841;SDS011;8021;48.022;11.812;2023-07-29T02:49:31;0.30;;;0.20;;
15841;SDS011;8021;48.022;11.812;2023-07-29T02:51:59;0.20;;;0.20;;
15841;SDS011;8021;48.022;11.812;2023-07-29T02:54:26;0.20;;;0.20;;
15841;SDS011;8021;48.022;11.812;2023-07-29T02:56:54;0.22;;;0.20;;
15841;SDS011;8021;48.022;11.812;2023-07-29T02:59:22;0.30;;;0.20;;
15841;SDS011;8021;48.022;11.812;2023-07-29T03:01:49;0.20;;;0.20;;
15841;SDS011;8021;48.022;11.812;2023-07-29T03:04:17;0.20;;;0.20;;
15841;SDS011;8021;48.022;11.812;2023-07-29T03:06:46;0.20;;;0.17;;
15841;SDS011;8021;48.022;11.812;2023-07-29T03:09:14;0.28;;;0.20;;
15841;SDS011;8021;48.022;11.812;2023-07-29T03:11:42;0.30;;;0.20;;
15841;SDS011;8021;48.022;11.812;2023-07-29T03:14:09;0.20;;;0.20;;
15841;SDS011;8021;48.022;11.812;2023-07-29T03:16:37;0.20;;;0.20;;
15841;SDS011;8021;48.022;11.812;2023-07-29T03:19:05;0.20;;;0.20;;
15841;SDS011;8021;48.022;11.812;2023-07-29T03:21:32;0.20;;;0.20;;
15841;SDS011;8021;48.022;11.812;2023-07-29T03:24:01;0.30;;;0.30;;
15841;SDS011;8021;48.022;11.812;2023-07-29T03:26:29;0.20;;;0.20;;
15841;SDS011;8021;48.022;11.812;2023-07-29T03:28:56;0.30;;;0.20;;
15841;SDS011;8021;48.022;11.812;2023-07-29T03:31:24;0.20;;;0.20;;
15841;SDS011;8021;48.022;11.812;2023-07-29T03:33:51;0.20;;;0.20;;
15841;SDS011;8021;48.022;11.812;2023-07-29T03:36:19;0.20;;;0.15;;
15841;SDS011;8021;48.022;11.812;2023-07-29T03:38:48;0.20;;;0.20;;
15841;SDS011;8021;48.022;11.812;2023-07-29T03:41:17;0.20;;;0.20;;
15841;SDS011;8021;48.022;11.812;2023-07-29T03:43:45;0.20;;;0.20;;
15841;SDS011;8021;48.022;11.812;2023-07-29T03:46:13;0.20;;;0.20;;
15841;SDS011;8021;48.022;11.812;2023-07-29T03:48:44;0.20;;;0.20;;
15841;SDS011;8021;48.022;11.812;2023-07-29T03:51:12;0.20;;;0.20;;
15841;SDS011;8021;48.022;11.812;2023-07-29T03:53:39;0.20;;;0.20;;
15841;SDS011;8021;48.022;11.812;2023-07-29T03:56:07;0.20;;;0.20;;
15841;SDS011;8021;48.022;11.812;2023-07-29T03:58:36;0.20;;;0.20;;
15841;SDS011;8021;48.022;11.812;2023-07-29T04:01:04;0.20;;;0.20;;
15841;SDS011;8021;48.022;11.812;2023-07-29T04:03:33;0.20;;;0.20;;
15841;SDS011;8021;48.022;11.812;2023-07-29T04:06:00;0.20;;;0.10;;
15841;SDS011;8021;48.022;11.812;2023-07-29T04:08:28;0.20;;;0.20;;
15841;SDS011;8021;48.022;11.812;2023-07-29T04:10:56;0.20;;;0.20;;
15841;SDS011;8021;48.022;11.812;2023-07-29T04:13:23;0.20;;;0.20;;
15841;SDS011;8021;48.022;11.812;2023-07-29T04:15:52;0.20;;;0.20;;
15841;SDS011;8021;48.022;11.812;2023-07-29T04:18:20;0.20;;;0.20;;
15841;SDS011;8021;48.022;11.812;2023-07-29T04:20:48;0.20;;;0.20;;
15841;SDS011;8021;48.022;11.812;2023-07-29T04:23:15;0.20;;;0.20;;
15841;SDS011;8021;48.022;11.812;2023-07-29T04:25:43;0.20;;;0.10;;
15841;SDS011;8021;48.022;11.812;2023-07-29T04:28:10;0.20;;;0.20;;
15841;SDS011;8021;48.022;11.812;2023-07-29T04:30:38;0.20;;;0.20;;
15841;SDS011;8021;48.022;11.812;2023-07-29T04:33:07;0.20;;;0.20;;
15841;SDS011;8021;48.022;11.812;2023-07-29T04:35:36;0.20;;;0.20;;
15841;SDS011;8021;48.022;11.812;2023-07-29T04:38:04;0.20;;;0.20;;
15841;SDS011;8021;48.022;11.812;2023-07-29T04:40:32;0.20;;;0.20;;
15841;SDS011;8021;48.022;11.812;2023-07-29T04:43:00;0.20;;;0.10;;
15841;SDS011;8021;48.022;11.812;2023-07-29T04:45:28;0.20;;;0.20;;
15841;SDS011;8021;48.022;11.812;2023-07-29T04:47:55;0.20;;;0.20;;
15841;SDS011;8021;48.022;11.812;2023-07-29T04:50:24;0.20;;;0.20;;
15841;SDS011;8021;48.022;11.812;2023-07-29T04:52:52;0.10;;;0.10;;
15841;SDS011;8021;48.022;11.812;2023-07-29T04:55:20;0.10;;;0.10;;
15841;SDS011;8021;48.022;11.812;2023-07-29T04:57:47;0.10;;;0.10;;
15841;SDS011;8021;48.022;11.812;2023-07-29T05:00:15;0.00;;;0.00;;
15841;SDS011;8021;48.022;11.812;2023-07-29T05:02:44;0.00;;;0.00;;
15841;SDS011;8021;48.022;11.812;2023-07-29T05:05:12;0.00;;;0.00;;
15841;SDS011;8021;48.022;11.812;2023-07-29T05:07:41;0.00;;;0.00;;
15841;SDS011;8021;48.022;11.812;2023-07-29T05:10:08;0.00;;;0.00;;
15841;SDS011;8021;48.022;11.812;2023-07-29T05:12:36;0.10;;;0.10;;
15841;SDS011;8021;48.022;11.812;2023-07-29T05:15:04;0.08;;;0.08;;
15841;SDS011;8021;48.022;11.812;2023-07-29T05:17:32;0.10;;;0.10;;
15841;SDS011;8021;48.022;11.812;2023-07-29T05:19:59;0.00;;;0.00;;
15841;SDS011;8021;48.022;11.812;2023-07-29T05:22:27;0.10;;;0.10;;
15841;SDS011;8021;48.022;11.812;2023-07-29T05:24:56;0.00;;;0.00;;
15841;SDS011;8021;48.022;11.812;2023-07-29T05:27:23;0.10;;;0.10;;
15841;SDS011;8021;48.022;11.812;2023-07-29T05:29:51;0.10;;;0.10;;
15841;SDS011;8021;48.022;11.812;2023-07-29T05:32:18;0.00;;;0.00;;
15841;SDS011;8021;48.022;11.812;2023-07-29T05:34:47;0.00;;;0.00;;
15841;SDS011;8021;48.022;11.812;2023-07-29T05:37:15;0.00;;;0.00;;
15841;SDS011;8021;48.022;11.812;2023-07-29T05:39:42;0.00;;;0.00;;
15841;SDS011;8021;48.022;11.812;2023-07-29T05:42:11;0.00;;;0.00;;
15841;SDS011;8021;48.022;11.812;2023-07-29T05:44:39;0.00;;;0.00;;
15841;SDS011;8021;48.022;11.812;2023-07-29T05:47:06;0.00;;;0.00;;
15841;SDS011;8021;48.022;11.812;2023-07-29T05:49:34;0.00;;;0.00;;
15841;SDS011;8021;48.022;11.812;2023-07-29T05:52:01;0.10;;;0.10;;
15841;SDS011;8021;48.022;11.812;2023-07-29T05:54:29;0.00;;;0.00;;
15841;SDS011;8021;48.022;11.812;2023-07-29T05:56:56;0.10;;;0.10;;
15841;SDS011;8021;48.022;11.812;2023-07-29T05:59:25;0.10;;;0.10;;
15841;SDS011;8021;48.022;11.812;2023-07-29T06:01:55;0.10;;;0.10;;
15841;SDS011;8021;48.022;11.812;2023-07-29T06:04:23;0.10;;;0.10;;
15841;SDS011;8021;48.022;11.812;2023-07-29T06:06:50;0.10;;;0.10;;
15841;SDS011;8021;48.022;11.812;2023-07-29T06:09:18;0.10;;;0.10;;
15841;SDS011;8021;48.022;11.812;2023-07-29T06:11:46;0.10;;;0.10;;
15841;SDS011;8021;48.022;11.812;2023-07-29T06:14:13;0.10;;;0.10;;
15841;SDS011;8021;48.022;11.812;2023-07-29T06:16:42;0.10;;;0.10;;
15841;SDS011;8021;48.022;11.812;2023-07-29T06:19:10;0.10;;;0.10;;
15841;SDS011;8021;48.022;11.812;2023-07-29T06:21:37;0.10;;;0.10;;
15841;SDS011;8021;48.022;11.812;2023-07-29T06:24:05;0.10;;;0.10;;
15841;SDS011;8021;48.022;11.812;2023-07-29T06:26:36;0.10;;;0.10;;
15841;SDS011;8021;48.022;11.812;2023-07-29T06:29:04;0.10;;;0.10;;
15841;SDS011;8021;48.022;11.812;2023-07-29T06:31:31;0.20;;;0.20;;
15841;SDS011;8021;48.022;11.812;2023-07-29T06:34:00;0.10;;;0.10;;
15841;SDS011;8021;48.022;11.812;2023-07-29T06:36:28;0.10;;;0.10;;
15841;SDS011;8021;48.022;11.812;2023-07-29T06:38:55;0.10;;;0.10;;
15841;SDS011;8021;48.022;11.812;2023-07-29T06:41:23;0.13;;;0.10;;
15841;SDS011;8021;48.022;11.812;2023-07-29T06:43:50;0.10;;;0.10;;
15841;SDS011;8021;48.022;11.812;2023-07-29T06:46:18;0.20;;;0.20;;
15841;SDS011;8021;48.022;11.812;2023-07-29T06:48:45;0.20;;;0.15;;
15841;SDS011;8021;48.022;11.812;2023-07-29T06:51:14;0.10;;;0.10;;
15841;SDS011;8021;48.022;11.812;2023-07-29T06:53:41;0.10;;;0.10;;
15841;SDS011;8021;48.022;11.812;2023-07-29T06:56:09;0.20;;;0.20;;
15841;SDS011;8021;48.022;11.812;2023-07-29T06:58:36;0.10;;;0.10;;
15841;SDS011;8021;48.022;11.812;2023-07-29T07:01:04;0.20;;;0.20;;
15841;SDS011;8021;48.022;11.812;2023-07-29T07:03:32;0.20;;;0.10;;
15841;SDS011;8021;48.022;11.812;2023-07-29T07:05:59;0.20;;;0.10;;
15841;SDS011;8021;48.022;11.812;2023-07-29T07:08:28;0.20;;;0.20;;
15841;SDS011;8021;48.022;11.812;2023-07-29T07:10:57;0.13;;;0.10;;
15841;SDS011;8021;48.022;11.812;2023-07-29T07:13:24;0.20;;;0.20;;
15841;SDS011;8021;48.022;11.812;2023-07-29T07:15:53;0.10;;;0.10;;
15841;SDS011;8021;48.022;11.812;2023-07-29T07:18:21;0.20;;;0.13;;
15841;SDS011;8021;48.022;11.812;2023-07-29T07:20:49;0.20;;;0.20;;
15841;SDS011;8021;48.022;11.812;2023-07-29T07:23:17;0.20;;;0.20;;
15841;SDS011;8021;48.022;11.812;2023-07-29T07:25:46;0.20;;;0.20;;
15841;SDS011;8021;48.022;11.812;2023-07-29T07:28:13;0.10;;;0.10;;
15841;SDS011;8021;48.022;11.812;2023-07-29T07:30:41;0.20;;;0.10;;
15841;SDS011;8021;48.022;11.812;2023-07-29T07:33:09;0.20;;;0.20;;
15841;SDS011;8021;48.022;11.812;2023-07-29T07:35:36;0.20;;;0.20;;
15841;SDS011;8021;48.022;11.812;2023-07-29T07:38:04;0.15;;;0.15;;
15841;SDS011;8021;48.022;11.812;2023-07-29T07:40:33;0.10;;;0.10;;
15841;SDS011;8021;48.022;11.812;2023-07-29T07:43:02;0.13;;;0.10;;
15841;SDS011;8021;48.022;11.812;2023-07-29T07:45:31;0.20;;;0.10;;
15841;SDS011;8021;48.022;11.812;2023-07-29T07:47:59;0.20;;;0.20;;
15841;SDS011;8021;48.022;11.812;2023-07-29T07:50:28;0.20;;;0.20;;
15841;SDS011;8021;48.022;11.812;2023-07-29T07:52:56;0.20;;;0.20;;
15841;SDS011;8021;48.022;11.812;2023-07-29T07:55:23;0.20;;;0.20;;
15841;SDS011;8021;48.022;11.812;2023-07-29T07:57:50;0.10;;;0.10;;
15841;SDS011;8021;48.022;11.812;2023-07-29T08:00:19;0.17;;;0.17;;
15841;SDS011;8021;48.022;11.812;2023-07-29T08:02:47;0.10;;;0.10;;
15841;SDS011;8021;48.022;11.812;2023-07-29T08:05:15;0.10;;;0.10;;
15841;SDS011;8021;48.022;11.812;2023-07-29T08:07:42;0.10;;;0.10;;
15841;SDS011;8021;48.022;11.812;2023-07-29T08:10:10;0.10;;;0.10;;
15841;SDS011;8021;48.022;11.812;2023-07-29T08:12:37;0.10;;;0.10;;
15841;SDS011;8021;48.022;11.812;2023-07-29T08:15:05;0.10;;;0.10;;
15841;SDS011;8021;48.022;11.812;2023-07-29T08:17:34;0.10;;;0.10;;
15841;SDS011;8021;48.022;11.812;2023-07-29T08:20:02;0.10;;;0.10;;
15841;SDS011;8021;48.022;11.812;2023-07-29T08:22:29;0.10;;;0.10;;
15841;SDS011;8021;48.022;11.812;2023-07-29T08:24:57;0.10;;;0.10;;
15841;SDS011;8021;48.022;11.812;2023-07-29T08:27:24;0.10;;;0.10;;
15841;SDS011;8021;48.022;11.812;2023-07-29T08:29:53;0.20;;;0.20;;
15841;SDS011;8021;48.022;11.812;2023-07-29T08:32:20;0.20;;;0.20;;
15841;SDS011;8021;48.022;11.812;2023-07-29T08:34:49;0.10;;;0.10;;
15841;SDS011;8021;48.022;11.812;2023-07-29T08:37:17;0.10;;;0.10;;
15841;SDS011;8021;48.022;11.812;2023-07-29T08:39:44;0.20;;;0.20;;
15841;SDS011;8021;48.022;11.812;2023-07-29T08:42:12;0.10;;;0.10;;
15841;SDS011;8021;48.022;11.812;2023-07-29T08:44:40;0.10;;;0.10;;
15841;SDS011;8021;48.022;11.812;2023-07-29T08:47:08;0.10;;;0.10;;
15841;SDS011;8021;48.022;11.812;2023-07-29T08:49:36;0.10;;;0.10;;
15841;SDS011;8021;48.022;11.812;2023-07-29T08:52:06;0.10;;;0.10;;
15841;SDS011;8021;48.022;11.812;2023-07-29T08:54:34;0.10;;;0.10;;
15841;SDS011;8021;48.022;11.812;2023-07-29T08:57:02;0.10;;;0.10;;
15841;SDS011;8021;48.022;11.812;2023-07-29T08:59:29;0.10;;;0.10;;
15841;SDS011;8021;48.022;11.812;2023-07-29T09:01:57;0.10;;;0.10;;
15841;SDS011;8021;48.022;11.812;2023-07-29T09:04:25;0.10;;;0.10;;
15841;SDS011;8021;48.022;11.812;2023-07-29T09:06:55;0.10;;;0.10;;
15841;SDS011;8021;48.022;11.812;2023-07-29T09:09:24;0.10;;;0.10;;
15841;SDS011;8021;48.022;11.812;2023-07-29T09:11:52;0.10;;;0.10;;
15841;SDS011;8021;48.022;11.812;2023-07-29T09:14:20;0.10;;;0.10;;
15841;SDS011;8021;48.022;11.812;2023-07-29T09:16:47;0.10;;;0.10;;
15841;SDS011;8021;48.022;11.812;2023-07-29T09:19:15;0.13;;;0.13;;
15841;SDS011;8021;48.022;11.812;2023-07-29T09:21:42;0.10;;;0.10;;
15841;SDS011;8021;48.022;11.812;2023-07-29T09:24:15;0.10;;;0.10;;
15841;SDS011;8021;48.022;11.812;2023-07-29T09:26:49;0.10;;;0.10;;
15841;SDS011;8021;48.022;11.812;2023-07-29T09:29:21;0.10;;;0.10;;
15841;SDS011;8021;48.022;11.812;2023-07-29T09:31:49;0.10;;;0.10;;
15841;SDS011;8021;48.022;11.812;2023-07-29T09:34:16;0.10;;;0.10;;
15841;SDS011;8021;48.022;11.812;2023-07-29T09:36:45;0.10;;;0.10;;
15841;SDS011;8021;48.022;11.812;2023-07-29T09:39:13;0.10;;;0.10;;
15841;SDS011;8021;48.022;11.812;2023-07-29T09:41:40;0.10;;;0.10;;
15841;SDS011;8021;48.022;11.812;2023-07-29T09:44:10;0.10;;;0.10;;
15841;SDS011;8021;48.022;11.812;2023-07-29T09:46:37;0.10;;;0.10;;
15841;SDS011;8021;48.022;11.812;2023-07-29T09:49:06;0.10;;;0.10;;
15841;SDS011;8021;48.022;11.812;2023-07-29T09:51:36;0.00;;;0.00;;
15841;SDS011;8021;48.022;11.812;2023-07-29T09:54:04;0.10;;;0.08;;
15841;SDS011;8021;48.022;11.812;2023-07-29T09:56:32;0.10;;;0.10;;
15841;SDS011;8021;48.022;11.812;2023-07-29T09:59:00;0.08;;;0.08;;
15841;SDS011;8021;48.022;11.812;2023-07-29T10:01:32;0.00;;;0.00;;
15841;SDS011;8021;48.022;11.812;2023-07-29T10:04:02;0.00;;;0.00;;
15841;SDS011;8021;48.022;11.812;2023-07-29T10:06:30;0.00;;;0.00;;
15841;SDS011;8021;48.022;11.812;2023-07-29T10:08:58;0.03;;;0.00;;
15841;SDS011;8021;48.022;11.812;2023-07-29T10:11:25;0.00;;;0.00;;
15841;SDS011;8021;48.022;11.812;2023-07-29T10:13:53;0.00;;;0.00;;
15841;SDS011;8021;48.022;11.812;2023-07-29T10:16:35;0.00;;;0.00;;
15841;SDS011;8021;48.022;11.812;2023-07-29T10:19:03;0.00;;;0.00;;
15841;SDS011;8021;48.022;11.812;2023-07-29T10:21:31;0.05;;;0.00;;
15841;SDS011;8021;48.022;11.812;2023-07-29T10:24:01;0.00;;;0.00;;
15841;SDS011;8021;48.022;11.812;2023-07-29T10:26:30;0.00;;;0.00;;
15841;SDS011;8021;48.022;11.812;2023-07-29T10:28:59;0.00;;;0.00;;
15841;SDS011;8021;48.022;11.812;2023-07-29T10:31:31;0.00;;;0.00;;
15841;SDS011;8021;48.022;11.812;2023-07-29T10:34:01;0.00;;;0.00;;
15841;SDS011;8021;48.022;11.812;2023-07-29T10:36:29;0.00;;;0.00;;
15841;SDS011;8021;48.022;11.812;2023-07-29T10:38:56;0.03;;;0.00;;
15841;SDS011;8021;48.022;11.812;2023-07-29T10:41:24;0.00;;;0.00;;
15841;SDS011;8021;48.022;11.812;2023-07-29T10:46:55;0.00;;;0.00;;
15841;SDS011;8021;48.022;11.812;2023-07-29T10:49:24;0.00;;;0.00;;
15841;SDS011;8021;48.022;11.812;2023-07-29T10:51:57;0.00;;;0.00;;
15841;SDS011;8021;48.022;11.812;2023-07-29T10:54:25;0.00;;;0.00;;
15841;SDS011;8021;48.022;11.812;2023-07-29T10:56:53;0.00;;;0.00;;
15841;SDS011;8021;48.022;11.812;2023-07-29T10:59:30;0.00;;;0.00;;
15841;SDS011;8021;48.022;11.812;2023-07-29T11:01:59;0.10;;;0.00;;
15841;SDS011;8021;48.022;11.812;2023-07-29T11:04:28;0.00;;;0.00;;
15841;SDS011;8021;48.022;11.812;2023-07-29T11:09:45;0.00;;;0.00;;
15841;SDS011;8021;48.022;11.812;2023-07-29T11:12:35;0.00;;;0.00;;
15841;SDS011;8021;48.022;11.812;2023-07-29T11:15:03;0.10;;;0.00;;
15841;SDS011;8021;48.022;11.812;2023-07-29T11:17:31;0.00;;;0.00;;
15841;SDS011;8021;48.022;11.812;2023-07-29T11:20:01;0.00;;;0.00;;
15841;SDS011;8021;48.022;11.812;2023-07-29T11:22:30;0.03;;;0.00;;
15841;SDS011;8021;48.022;11.812;2023-07-29T11:25:00;0.00;;;0.00;;
15841;SDS011;8021;48.022;11.812;2023-07-29T11:27:27;0.00;;;0.00;;
15841;SDS011;8021;48.022;11.812;2023-07-29T11:29:56;0.00;;;0.00;;
15841;SDS011;8021;48.022;11.812;2023-07-29T11:32:24;0.08;;;0.00;;
15841;SDS011;8021;48.022;11.812;2023-07-29T11:34:52;0.00;;;0.00;;
15841;SDS011;8021;48.022;11.812;2023-07-29T11:37:21;0.00;;;0.00;;
15841;SDS011;8021;48.022;11.812;2023-07-29T11:39:49;0.00;;;0.00;;
15841;SDS011;8021;48.022;11.812;2023-07-29T11:42:17;0.03;;;0.00;;
15841;SDS011;8021;48.022;11.812;2023-07-29T11:44:45;0.00;;;0.00;;
15841;SDS011;8021;48.022;11.812;2023-07-29T11:47:12;0.00;;;0.00;;
15841;SDS011;8021;48.022;11.812;2023-07-29T11:49:40;0.00;;;0.00;;
15841;SDS011;8021;48.022;11.812;2023-07-29T11:52:08;0.00;;;0.00;;
15841;SDS011;8021;48.022;11.812;2023-07-29T11:54:38;0.00;;;0.00;;
15841;SDS011;8021;48.022;11.812;2023-07-29T11:57:06;0.00;;;0.00;;
15841;SDS011;8021;48.022;11.812;2023-07-29T11:59:34;0.00;;;0.00;;
15841;SDS011;8021;48.022;11.812;2023-07-29T12:02:03;0.00;;;0.00;;
15841;SDS011;8021;48.022;11.812;2023-07-29T12:04:33;0.00;;;0.00;;
15841;SDS011;8021;48.022;11.812;2023-07-29T12:07:02;0.00;;;0.00;;
15841;SDS011;8021;48.022;11.812;2023-07-29T12:09:30;0.00;;;0.00;;
15841;SDS011;8021;48.022;11.812;2023-07-29T12:11:59;0.10;;;0.00;;
15841;SDS011;8021;48.022;11.812;2023-07-29T12:14:27;0.00;;;0.00;;
15841;SDS011;8021;48.022;11.812;2023-07-29T12:16:55;0.00;;;0.00;;
15841;SDS011;8021;48.022;11.812;2023-07-29T12:19:23;0.00;;;0.00;;
15841;SDS011;8021;48.022;11.812;2023-07-29T12:21:51;0.00;;;0.00;;
15841;SDS011;8021;48.022;11.812;2023-07-29T12:24:19;0.10;;;0.00;;
15841;SDS011;8021;48.022;11.812;2023-07-29T12:26:49;0.00;;;0.00;;
15841;SDS011;8021;48.022;11.812;2023-07-29T12:29:19;0.10;;;0.00;;
15841;SDS011;8021;48.022;11.812;2023-07-29T12:31:46;0.00;;;0.00;;
15841;SDS011;8021;48.022;11.812;2023-07-29T12:34:17;0.00;;;0.00;;
15841;SDS011;8021;48.022;11.812;2023-07-29T12:36:45;0.00;;;0.00;;
15841;SDS011;8021;48.022;11.812;2023-07-29T12:39:17;0.00;;;0.00;;
15841;SDS011;8021;48.022;11.812;2023-07-29T12:41:44;0.00;;;0.00;;
15841;SDS011;8021;48.022;11.812;2023-07-29T12:44:12;0.00;;;0.00;;
15841;SDS011;8021;48.022;11.812;2023-07-29T12:46:43;0.00;;;0.00;;
15841;SDS011;8021;48.022;11.812;2023-07-29T12:49:11;0.00;;;0.00;;
15841;SDS011;8021;48.022;11.812;2023-07-29T12:51:38;0.00;;;0.00;;
15841;SDS011;8021;48.022;11.812;2023-07-29T12:54:06;0.00;;;0.00;;
15841;SDS011;8021;48.022;11.812;2023-07-29T12:59:27;0.00;;;0.00;;
15841;SDS011;8021;48.022;11.812;2023-07-29T13:01:56;0.00;;;0.00;;
15841;SDS011;8021;48.022;11.812;2023-07-29T13:04:24;0.00;;;0.00;;
15841;SDS011;8021;48.022;11.812;2023-07-29T13:06:51;0.00;;;0.00;;
15841;SDS011;8021;48.022;11.812;2023-07-29T13:09:19;0.00;;;0.00;;
15841;SDS011;8021;48.022;11.812;2023-07-29T13:11:46;0.00;;;0.00;;
15841;SDS011;8021;48.022;11.812;2023-07-29T13:14:14;0.00;;;0.00;;
15841;SDS011;8021;48.022;11.812;2023-07-29T13:16:41;0.00;;;0.00;;
15841;SDS011;8021;48.022;11.812;2023-07-29T13:19:10;0.10;;;0.00;;
15841;SDS011;8021;48.022;11.812;2023-07-29T13:21:38;0.00;;;0.00;;
15841;SDS011;8021;48.022;11.812;2023-07-29T13:24:05;0.00;;;0.00;;
15841;SDS011;8021;48.022;11.812;2023-07-29T13:26:33;0.10;;;0.10;;
15841;SDS011;8021;48.022;11.812;2023-07-29T13:29:01;0.10;;;0.10;;
15841;SDS011;8021;48.022;11.812;2023-07-29T13:31:34;0.10;;;0.10;;
15841;SDS011;8021;48.022;11.812;2023-07-29T13:34:01;0.10;;;0.10;;
15841;SDS011;8021;48.022;11.812;2023-07-29T13:36:30;0.10;;;0.10;;
15841;SDS011;8021;48.022;11.812;2023-07-29T13:38:58;0.10;;;0.10;;
15841;SDS011;8021;48.022;11.812;2023-07-29T13:41:26;0.10;;;0.10;;
15841;SDS011;8021;48.022;11.812;2023-07-29T13:43:53;0.10;;;0.10;;
15841;SDS011;8021;48.022;11.812;2023-07-29T13:46:21;0.10;;;0.10;;
15841;SDS011;8021;48.022;11.812;2023-07-29T13:48:48;0.00;;;0.00;;
15841;SDS011;8021;48.022;11.812;2023-07-29T13:51:16;0.10;;;0.10;;
15841;SDS011;8021;48.022;11.812;2023-07-29T13:53:45;0.00;;;0.00;;
15841;SDS011;8021;48.022;11.812;2023-07-29T13:56:12;0.10;;;0.10;;
15841;SDS011;8021;48.022;11.812;2023-07-29T13:58:40;0.10;;;0.10;;
15841;SDS011;8021;48.022;11.812;2023-07-29T14:01:07;0.03;;;0.03;;
15841;SDS011;8021;48.022;11.812;2023-07-29T14:03:35;0.03;;;0.03;;
15841;SDS011;8021;48.022;11.812;2023-07-29T14:06:02;0.10;;;0.10;;
15841;SDS011;8021;48.022;11.812;2023-07-29T14:08:30;0.10;;;0.10;;
15841;SDS011;8021;48.022;11.812;2023-07-29T14:10:59;0.10;;;0.10;;
15841;SDS011;8021;48.022;11.812;2023-07-29T14:13:26;0.10;;;0.10;;
15841;SDS011;8021;48.022;11.812;2023-07-29T14:15:54;0.10;;;0.10;;
15841;SDS011;8021;48.022;11.812;2023-07-29T14:18:21;0.10;;;0.10;;
15841;SDS011;8021;48.022;11.812;2023-07-29T14:20:49;0.05;;;0.05;;
15841;SDS011;8021;48.022;11.812;2023-07-29T14:23:17;0.10;;;0.10;;
15841;SDS011;8021;48.022;11.812;2023-07-29T14:25:45;0.10;;;0.10;;
15841;SDS011;8021;48.022;11.812;2023-07-29T14:28:14;0.10;;;0.10;;
15841;SDS011;8021;48.022;11.812;2023-07-29T14:30:41;0.10;;;0.10;;
15841;SDS011;8021;48.022;11.812;2023-07-29T14:33:09;0.03;;;0.03;;
15841;SDS011;8021;48.022;11.812;2023-07-29T14:35:36;0.10;;;0.10;;
15841;SDS011;8021;48.022;11.812;2023-07-29T14:38:04;0.05;;;0.05;;
15841;SDS011;8021;48.022;11.812;2023-07-29T14:40:32;0.10;;;0.10;;
15841;SDS011;8021;48.022;11.812;2023-07-29T14:42:59;0.03;;;0.03;;
15841;SDS011;8021;48.022;11.812;2023-07-29T14:45:28;0.10;;;0.10;;
15841;SDS011;8021;48.022;11.812;2023-07-29T14:47:55;0.10;;;0.10;;
15841;SDS011;8021;48.022;11.812;2023-07-29T14:50:23;0.10;;;0.10;;
15841;SDS011;8021;48.022;11.812;2023-07-29T14:52:50;0.10;;;0.10;;
15841;SDS011;8021;48.022;11.812;2023-07-29T14:55:18;0.10;;;0.10;;
15841;SDS011;8021;48.022;11.812;2023-07-29T14:57:46;0.10;;;0.10;;
15841;SDS011;8021;48.022;11.812;2023-07-29T15:00:14;0.10;;;0.10;;
15841;SDS011;8021;48.022;11.812;2023-07-29T15:02:43;0.10;;;0.10;;